Linden Pride — H3VP — position and weather

sailwx.info

Track history (hours):
 
Tides and Currents Weather Stations Pressure Air Temp Water Temp Dewpoint Dewpoint Depression Visibility Wind Speed Wind Dir Waves Ship Positions

Linden Pride

Last reported at 2018-Jan-09 17:59 UTC. Time now 2018-Jan-21 14:51 UTC.
Position N 09°11' W 079°52'.
Warning: this ship's position is 11 days out of date.

Length 230 m; beam 36.6 m.

Type: Tanker. MMSI: 356677000.

Date/timePositionNaut miles runAvg speedWind from/ knotsBaromVisibWave heightAir tempDewpointWater temp
2018-Jan-09 17:59N 09°11' W 079°52'4 8.2
2018-Jan-09 17:30N 09°13' W 079°55'1 2.9
2018-Jan-09 17:00N 09°14' W 079°56'0 0.1
2018-Jan-09 16:29N 09°14' W 079°56'0 0.1
2018-Jan-09 15:59N 09°14' W 079°56'0 0.0
2018-Jan-09 15:26N 09°14' W 079°56'0 0.0
2018-Jan-09 14:59N 09°14' W 079°56'0 0.1
2018-Jan-09 14:29N 09°14' W 079°56'0 0.1
2018-Jan-09 13:44N 09°14' W 079°56'0 0.1
2018-Jan-09 13:29N 09°14' W 079°56'0 0.1
2018-Jan-09 12:59N 09°14' W 079°56'0 0.0
2018-Jan-09 12:29N 09°14' W 079°56'0 0.0
2018-Jan-09 11:59N 09°14' W 079°56'0 0.0
2018-Jan-09 11:29N 09°14' W 079°56'0 0.1
2018-Jan-09 10:59N 09°14' W 079°56'0 0.0
2018-Jan-09 10:29N 09°14' W 079°56'0 0.0
2018-Jan-09 09:56N 09°14' W 079°56'0 0.1
2018-Jan-09 09:29N 09°14' W 079°56'0 0.1
2018-Jan-09 08:59N 09°14' W 079°56'0 0.1
2018-Jan-09 08:29N 09°14' W 079°56'0 0.1
2018-Jan-09 07:59N 09°14' W 079°56'0 0.0
2018-Jan-09 07:29N 09°14' W 079°56'0 0.0
2018-Jan-09 06:50N 09°14' W 079°56'0 0.2
2018-Jan-09 06:29N 09°14' W 079°56'0 0.6
2018-Jan-09 06:01N 09°14' W 079°56'2 3.8
2018-Jan-09 05:30N 09°16' W 079°55'0 0.3
2018-Jan-09 05:00N 09°16' W 079°55'0 0.4
2018-Jan-09 04:30N 09°16' W 079°55'0 0.5
2018-Jan-09 04:00N 09°17' W 079°55'0 0.3
2018-Jan-09 03:30N 09°17' W 079°55'1 2.4
2018-Jan-09 03:00N 09°18' W 079°55'3 6.6
2018-Jan-09 02:31N 09°21' W 079°55'3 6.7
2018-Jan-09 02:00N 09°25' W 079°55'2 3.4
2018-Jan-09 01:30N 09°26' W 079°55'0 0.8
2018-Jan-09 01:00N 09°26' W 079°55'2 3.9
2018-Jan-09 00:30N 09°28' W 079°56'3 5.4
2018-Jan-09 00:00N 09°29' W 079°58'0 0.3
2018-Jan-08 23:30N 09°29' W 079°58'0 0.0
2018-Jan-08 23:00N 09°29' W 079°58'0 0.0
2018-Jan-08 22:30N 09°29' W 079°58'0 0.1
2018-Jan-08 22:00N 09°29' W 079°58'0 0.0
2018-Jan-08 21:21N 09°29' W 079°58'0 0.0
2018-Jan-08 21:00N 09°29' W 079°58'0 0.0
2018-Jan-08 19:48N 09°29' W 079°58'0 0.0
2018-Jan-08 18:57N 09°29' W 079°58'0 0.0
2018-Jan-08 18:00N 09°29' W 079°58'0 0.0
2018-Jan-08 17:24N 09°29' W 079°58'0 0.0
2018-Jan-08 16:48N 09°29' W 079°58'0 0.0
2018-Jan-08 16:30N 09°29' W 079°58'0 0.0
2018-Jan-08 15:51N 09°29' W 079°58'0 0.0
2018-Jan-08 15:30N 09°29' W 079°58'0 0.0
2018-Jan-08 15:00N 09°29' W 079°58'0 0.0
2018-Jan-08 14:30N 09°29' W 079°58'0 0.0
2018-Jan-08 14:00N 09°29' W 079°58'0 0.0
2018-Jan-08 13:06N 09°29' W 079°58'0 0.0
2018-Jan-08 12:54N 09°29' W 079°58'0 0.0
2018-Jan-08 12:30N 09°29' W 079°58'0 0.0
2018-Jan-08 11:54N 09°29' W 079°58'0 0.0
2018-Jan-08 11:30N 09°29' W 079°58'0 0.0
2018-Jan-08 10:57N 09°29' W 079°58'0 0.0
2018-Jan-08 10:30N 09°29' W 079°58'0 0.0
2018-Jan-08 09:57N 09°29' W 079°58'0 0.0
2018-Jan-08 09:30N 09°29' W 079°58'0 0.1
2018-Jan-08 08:45N 09°29' W 079°58'0 0.0
2018-Jan-08 08:30N 09°29' W 079°58'0 0.0
2018-Jan-08 08:00N 09°29' W 079°58'0 0.0
2018-Jan-08 07:24N 09°29' W 079°58'0 0.0
2018-Jan-08 07:00N 09°29' W 079°58'0 0.1
2018-Jan-08 06:30N 09°29' W 079°58'0 0.1
2018-Jan-08 06:00N 09°29' W 079°58'0 0.1
2018-Jan-08 05:30N 09°29' W 079°58'0 0.0
2018-Jan-08 04:57N 09°29' W 079°58'0 0.0
2018-Jan-08 04:30N 09°29' W 079°58'0 0.0
2018-Jan-08 03:57N 09°29' W 079°58'0 0.0
2018-Jan-08 03:30N 09°29' W 079°58'0 0.0
2018-Jan-08 03:00N 09°29' W 079°58'0 0.0
2018-Jan-08 02:30N 09°29' W 079°58'0 0.0
2018-Jan-08 01:54N 09°29' W 079°58'0 0.0
2018-Jan-08 01:18N 09°29' W 079°58'0 0.0
2018-Jan-08 01:00N 09°29' W 079°58'0 0.0
2018-Jan-08 00:30N 09°29' W 079°58'0 0.0
2018-Jan-07 23:54N 09°29' W 079°58'0 0.0
2018-Jan-07 23:27N 09°29' W 079°58'0 0.0
2018-Jan-07 23:00N 09°29' W 079°58'0 0.0
2018-Jan-07 22:30N 09°29' W 079°58'0 0.0
2018-Jan-07 22:00N 09°29' W 079°58'0 0.0
2018-Jan-07 19:09N 09°29' W 079°58'0 0.1
2018-Jan-07 19:00N 09°29' W 079°58'0 0.0
2018-Jan-07 17:21N 09°29' W 079°58'0 0.0
2018-Jan-07 16:57N 09°29' W 079°58'0 0.1
2018-Jan-07 16:06N 09°29' W 079°58'0 0.2
2018-Jan-07 16:00N 09°29' W 079°58'0 0.0
2018-Jan-07 15:30N 09°29' W 079°58'0 0.0
2018-Jan-07 15:00N 09°29' W 079°58'0 0.0
2018-Jan-07 14:30N 09°29' W 079°58'0 0.0
2018-Jan-07 14:00N 09°29' W 079°58'0 0.0
2018-Jan-07 13:30N 09°29' W 079°58'0 0.1
2018-Jan-07 13:00N 09°29' W 079°58'0 0.0
2018-Jan-07 12:30N 09°29' W 079°58'0 0.1
2018-Jan-07 12:00N 09°29' W 079°58'0 0.1
2018-Jan-07 11:30N 09°29' W 079°58'0 0.0
2018-Jan-07 11:00N 09°29' W 079°58'0 0.1
2018-Jan-07 10:29N 09°29' W 079°58'0 0.2
2018-Jan-07 10:00N 09°29' W 079°58'2 4.4
2018-Jan-07 09:30N 09°31' W 079°59'2 4.7
2018-Jan-07 09:00N 09°32' W 080°01'510.7
2018-Jan-07 08:30N 09°37' W 080°04'  
2018-Jan-02 22:34N 29°24' W 094°49'2 9.2
2018-Jan-02 22:20N 29°26' W 094°50'3 9.6
2018-Jan-02 22:00N 29°28' W 094°51'510.2
2018-Jan-02 21:30N 29°33' W 094°54'510.5
2018-Jan-02 21:00N 29°37' W 094°57'5 9.3
2018-Jan-02 20:31N 29°42' W 094°59'4 7.0
2018-Jan-02 20:00N 29°44' W 095°02'3 6.3
2018-Jan-02 19:30N 29°46' W 095°05'3 5.6
2018-Jan-02 19:00N 29°44' W 095°08'3 5.6
2018-Jan-02 18:30N 29°45' W 095°11'1 0.1
2018-Jan-02 12:00N 29°44' W 095°12'0 0.0
2018-Jan-01 17:30N 29°44' W 095°12'0 0.0
2018-Jan-01 11:30N 29°44' W 095°12'0 0.0
2018-Jan-01 10:45N 29°44' W 095°12'0 0.0
2018-Jan-01 10:27N 29°44' W 095°12'0 0.0
2018-Jan-01 09:51N 29°44' W 095°12'0 0.0
2018-Jan-01 09:27N 29°44' W 095°12'0 0.0
2018-Jan-01 08:18N 29°44' W 095°12'0 0.0
2018-Jan-01 08:00N 29°44' W 095°12'0 0.0
2018-Jan-01 07:15N 29°44' W 095°12'0 0.0
2018-Jan-01 07:00N 29°44' W 095°12'0 0.0
2018-Jan-01 05:54N 29°44' W 095°12'0 0.0
2018-Jan-01 05:21N 29°44' W 095°12'0 0.0
2018-Jan-01 05:00N 29°44' W 095°12'0 0.0
2018-Jan-01 03:45N 29°44' W 095°12'0 0.0
2018-Jan-01 03:24N 29°44' W 095°12'0 0.0
2018-Jan-01 02:45N 29°44' W 095°12'0 0.0
2018-Jan-01 02:18N 29°44' W 095°12'0 0.0
2018-Jan-01 01:54N 29°44' W 095°12'0 0.0
2018-Jan-01 01:30N 29°44' W 095°12'0 0.0
2018-Jan-01 00:15N 29°44' W 095°12'0 0.0
2017-Dec-31 18:30N 29°44' W 095°12'0 0.0
2017-Dec-31 18:00N 29°44' W 095°12'0 0.0
2017-Dec-31 17:30N 29°44' W 095°12'0 0.0
2017-Dec-31 17:00N 29°44' W 095°12'0 0.0
2017-Dec-31 16:18N 29°44' W 095°12'0 0.0
2017-Dec-31 15:48N 29°44' W 095°12'0 0.0
2017-Dec-31 15:24N 29°44' W 095°12'0 0.0
2017-Dec-31 15:00N 29°44' W 095°12'0 0.0
2017-Dec-31 14:27N 29°44' W 095°12'0 0.0
2017-Dec-31 13:57N 29°44' W 095°12'0 0.0
2017-Dec-31 13:30N 29°44' W 095°12'0 0.0
2017-Dec-31 13:00N 29°44' W 095°12'0 0.0
2017-Dec-31 12:24N 29°44' W 095°12'0 0.0
2017-Dec-31 11:57N 29°44' W 095°12'0 0.0
2017-Dec-31 11:24N 29°44' W 095°12'0 0.0
2017-Dec-31 10:57N 29°44' W 095°12'0 0.0
2017-Dec-31 10:24N 29°44' W 095°12'0 0.0
2017-Dec-31 09:57N 29°44' W 095°12'0 0.0
2017-Dec-31 09:21N 29°44' W 095°12'0 0.0
2017-Dec-31 09:00N 29°44' W 095°12'0 0.0
2017-Dec-31 08:27N 29°44' W 095°12'0 0.0
2017-Dec-31 07:57N 29°44' W 095°12'0 0.0
2017-Dec-31 07:27N 29°44' W 095°12'0 0.0
2017-Dec-31 06:57N 29°44' W 095°12'0 0.0
2017-Dec-31 06:09N 29°44' W 095°12'0 0.0
2017-Dec-31 05:57N 29°44' W 095°12'0 0.0
2017-Dec-31 05:27N 29°44' W 095°12'0 0.0
2017-Dec-31 04:57N 29°44' W 095°12'0 0.0
2017-Dec-31 04:30N 29°44' W 095°12'0 0.0
2017-Dec-31 03:57N 29°44' W 095°12'0 0.0
2017-Dec-31 03:24N 29°44' W 095°12'0 0.0
2017-Dec-31 02:45N 29°44' W 095°12'0 0.0
2017-Dec-31 02:27N 29°44' W 095°12'0 0.0
2017-Dec-31 02:00N 29°44' W 095°12'0 0.0
2017-Dec-31 01:27N 29°44' W 095°12'0 0.0
2017-Dec-31 00:42N 29°44' W 095°12'0 0.0
2017-Dec-31 00:24N 29°44' W 095°12'0 0.0
2017-Dec-31 00:00N 29°44' W 095°12'0 0.0
2017-Dec-30 23:30N 29°44' W 095°12'0 0.0
2017-Dec-30 22:57N 29°44' W 095°12'0 0.0
2017-Dec-30 22:27N 29°44' W 095°12'0 0.0
2017-Dec-30 21:54N 29°44' W 095°12'0 0.0
2017-Dec-30 21:24N 29°44' W 095°12'0 0.0
2017-Dec-30 21:00N 29°44' W 095°12'0 0.0
2017-Dec-30 20:27N 29°44' W 095°12'0 0.0
2017-Dec-30 20:00N 29°44' W 095°12'0 0.0
2017-Dec-30 19:21N 29°44' W 095°12'0 0.0
2017-Dec-30 18:46N 29°44' W 095°12'0 0.0
2017-Dec-30 18:13N 29°44' W 095°12'  
Track history (hours):
 
Tides and Currents Weather Stations Pressure Air Temp Water Temp Dewpoint Dewpoint Depression Visibility Wind Speed Wind Dir Waves Ship Positions

Linden Pride

Last reported at 2018-Jan-09 17:59 UTC. Time now 2018-Jan-21 14:51 UTC.
Position N 09°11' W 079°52'.
Warning: this ship's position is 11 days out of date.

Length 230 m; beam 36.6 m.

Type: Tanker. MMSI: 356677000.

Date/timePositionNaut miles runAvg speedWind from/ knotsBaromVisibWave heightAir tempDewpointWater temp
2018-Jan-09 17:59N 09°11' W 079°52'4 8.2
2018-Jan-09 17:30N 09°13' W 079°55'1 2.9
2018-Jan-09 17:00N 09°14' W 079°56'0 0.1
2018-Jan-09 16:29N 09°14' W 079°56'0 0.1
2018-Jan-09 15:59N 09°14' W 079°56'0 0.0
2018-Jan-09 15:26N 09°14' W 079°56'0 0.0
2018-Jan-09 14:59N 09°14' W 079°56'0 0.1
2018-Jan-09 14:29N 09°14' W 079°56'0 0.1
2018-Jan-09 13:44N 09°14' W 079°56'0 0.1
2018-Jan-09 13:29N 09°14' W 079°56'0 0.1
2018-Jan-09 12:59N 09°14' W 079°56'0 0.0
2018-Jan-09 12:29N 09°14' W 079°56'0 0.0
2018-Jan-09 11:59N 09°14' W 079°56'0 0.0
2018-Jan-09 11:29N 09°14' W 079°56'0 0.1
2018-Jan-09 10:59N 09°14' W 079°56'0 0.0
2018-Jan-09 10:29N 09°14' W 079°56'0 0.0
2018-Jan-09 09:56N 09°14' W 079°56'0 0.1
2018-Jan-09 09:29N 09°14' W 079°56'0 0.1
2018-Jan-09 08:59N 09°14' W 079°56'0 0.1
2018-Jan-09 08:29N 09°14' W 079°56'0 0.1
2018-Jan-09 07:59N 09°14' W 079°56'0 0.0
2018-Jan-09 07:29N 09°14' W 079°56'0 0.0
2018-Jan-09 06:50N 09°14' W 079°56'0 0.2
2018-Jan-09 06:29N 09°14' W 079°56'0 0.6
2018-Jan-09 06:01N 09°14' W 079°56'2 3.8
2018-Jan-09 05:30N 09°16' W 079°55'0 0.3
2018-Jan-09 05:00N 09°16' W 079°55'0 0.4
2018-Jan-09 04:30N 09°16' W 079°55'0 0.5
2018-Jan-09 04:00N 09°17' W 079°55'0 0.3
2018-Jan-09 03:30N 09°17' W 079°55'1 2.4
2018-Jan-09 03:00N 09°18' W 079°55'3 6.6
2018-Jan-09 02:31N 09°21' W 079°55'3 6.7
2018-Jan-09 02:00N 09°25' W 079°55'2 3.4
2018-Jan-09 01:30N 09°26' W 079°55'0 0.8
2018-Jan-09 01:00N 09°26' W 079°55'2 3.9
2018-Jan-09 00:30N 09°28' W 079°56'3 5.4
2018-Jan-09 00:00N 09°29' W 079°58'0 0.3
2018-Jan-08 23:30N 09°29' W 079°58'0 0.0
2018-Jan-08 23:00N 09°29' W 079°58'0 0.0
2018-Jan-08 22:30N 09°29' W 079°58'0 0.1
2018-Jan-08 22:00N 09°29' W 079°58'0 0.0
2018-Jan-08 21:21N 09°29' W 079°58'0 0.0
2018-Jan-08 21:00N 09°29' W 079°58'0 0.0
2018-Jan-08 19:48N 09°29' W 079°58'0 0.0
2018-Jan-08 18:57N 09°29' W 079°58'0 0.0
2018-Jan-08 18:00N 09°29' W 079°58'0 0.0
2018-Jan-08 17:24N 09°29' W 079°58'0 0.0
2018-Jan-08 16:48N 09°29' W 079°58'0 0.0
2018-Jan-08 16:30N 09°29' W 079°58'0 0.0
2018-Jan-08 15:51N 09°29' W 079°58'0 0.0
2018-Jan-08 15:30N 09°29' W 079°58'0 0.0
2018-Jan-08 15:00N 09°29' W 079°58'0 0.0
2018-Jan-08 14:30N 09°29' W 079°58'0 0.0
2018-Jan-08 14:00N 09°29' W 079°58'0 0.0
2018-Jan-08 13:06N 09°29' W 079°58'0 0.0
2018-Jan-08 12:54N 09°29' W 079°58'0 0.0
2018-Jan-08 12:30N 09°29' W 079°58'0 0.0
2018-Jan-08 11:54N 09°29' W 079°58'0 0.0
2018-Jan-08 11:30N 09°29' W 079°58'0 0.0
2018-Jan-08 10:57N 09°29' W 079°58'0 0.0
2018-Jan-08 10:30N 09°29' W 079°58'0 0.0
2018-Jan-08 09:57N 09°29' W 079°58'0 0.0
2018-Jan-08 09:30N 09°29' W 079°58'0 0.1
2018-Jan-08 08:45N 09°29' W 079°58'0 0.0
2018-Jan-08 08:30N 09°29' W 079°58'0 0.0
2018-Jan-08 08:00N 09°29' W 079°58'0 0.0
2018-Jan-08 07:24N 09°29' W 079°58'0 0.0
2018-Jan-08 07:00N 09°29' W 079°58'0 0.1
2018-Jan-08 06:30N 09°29' W 079°58'0 0.1
2018-Jan-08 06:00N 09°29' W 079°58'0 0.1
2018-Jan-08 05:30N 09°29' W 079°58'0 0.0
2018-Jan-08 04:57N 09°29' W 079°58'0 0.0
2018-Jan-08 04:30N 09°29' W 079°58'0 0.0
2018-Jan-08 03:57N 09°29' W 079°58'0 0.0
2018-Jan-08 03:30N 09°29' W 079°58'0 0.0
2018-Jan-08 03:00N 09°29' W 079°58'0 0.0
2018-Jan-08 02:30N 09°29' W 079°58'0 0.0
2018-Jan-08 01:54N 09°29' W 079°58'0 0.0
2018-Jan-08 01:18N 09°29' W 079°58'0 0.0
2018-Jan-08 01:00N 09°29' W 079°58'0 0.0
2018-Jan-08 00:30N 09°29' W 079°58'0 0.0
2018-Jan-07 23:54N 09°29' W 079°58'0 0.0
2018-Jan-07 23:27N 09°29' W 079°58'0 0.0
2018-Jan-07 23:00N 09°29' W 079°58'0 0.0
2018-Jan-07 22:30N 09°29' W 079°58'0 0.0
2018-Jan-07 22:00N 09°29' W 079°58'0 0.0
2018-Jan-07 19:09N 09°29' W 079°58'0 0.1
2018-Jan-07 19:00N 09°29' W 079°58'0 0.0
2018-Jan-07 17:21N 09°29' W 079°58'0 0.0
2018-Jan-07 16:57N 09°29' W 079°58'0 0.1
2018-Jan-07 16:06N 09°29' W 079°58'0 0.2
2018-Jan-07 16:00N 09°29' W 079°58'0 0.0
2018-Jan-07 15:30N 09°29' W 079°58'0 0.0
2018-Jan-07 15:00N 09°29' W 079°58'0 0.0
2018-Jan-07 14:30N 09°29' W 079°58'0 0.0
2018-Jan-07 14:00N 09°29' W 079°58'0 0.0
2018-Jan-07 13:30N 09°29' W 079°58'0 0.1
2018-Jan-07 13:00N 09°29' W 079°58'0 0.0
2018-Jan-07 12:30N 09°29' W 079°58'0 0.1
2018-Jan-07 12:00N 09°29' W 079°58'0 0.1
2018-Jan-07 11:30N 09°29' W 079°58'0 0.0
2018-Jan-07 11:00N 09°29' W 079°58'0 0.1
2018-Jan-07 10:29N 09°29' W 079°58'0 0.2
2018-Jan-07 10:00N 09°29' W 079°58'2 4.4
2018-Jan-07 09:30N 09°31' W 079°59'2 4.7
2018-Jan-07 09:00N 09°32' W 080°01'510.7
2018-Jan-07 08:30N 09°37' W 080°04'  
2018-Jan-02 22:34N 29°24' W 094°49'2 9.2
2018-Jan-02 22:20N 29°26' W 094°50'3 9.6
2018-Jan-02 22:00N 29°28' W 094°51'510.2
2018-Jan-02 21:30N 29°33' W 094°54'510.5
2018-Jan-02 21:00N 29°37' W 094°57'5 9.3
2018-Jan-02 20:31N 29°42' W 094°59'4 7.0
2018-Jan-02 20:00N 29°44' W 095°02'3 6.3
2018-Jan-02 19:30N 29°46' W 095°05'3 5.6
2018-Jan-02 19:00N 29°44' W 095°08'3 5.6
2018-Jan-02 18:30N 29°45' W 095°11'1 0.1
2018-Jan-02 12:00N 29°44' W 095°12'0 0.0
2018-Jan-01 17:30N 29°44' W 095°12'0 0.0
2018-Jan-01 11:30N 29°44' W 095°12'0 0.0
2018-Jan-01 10:45N 29°44' W 095°12'0 0.0
2018-Jan-01 10:27N 29°44' W 095°12'0 0.0
2018-Jan-01 09:51N 29°44' W 095°12'0 0.0
2018-Jan-01 09:27N 29°44' W 095°12'0 0.0
2018-Jan-01 08:18N 29°44' W 095°12'0 0.0
2018-Jan-01 08:00N 29°44' W 095°12'0 0.0
2018-Jan-01 07:15N 29°44' W 095°12'0 0.0
2018-Jan-01 07:00N 29°44' W 095°12'0 0.0
2018-Jan-01 05:54N 29°44' W 095°12'0 0.0
2018-Jan-01 05:21N 29°44' W 095°12'0 0.0
2018-Jan-01 05:00N 29°44' W 095°12'0 0.0
2018-Jan-01 03:45N 29°44' W 095°12'0 0.0
2018-Jan-01 03:24N 29°44' W 095°12'0 0.0
2018-Jan-01 02:45N 29°44' W 095°12'0 0.0
2018-Jan-01 02:18N 29°44' W 095°12'0 0.0
2018-Jan-01 01:54N 29°44' W 095°12'0 0.0
2018-Jan-01 01:30N 29°44' W 095°12'0 0.0
2018-Jan-01 00:15N 29°44' W 095°12'0 0.0
2017-Dec-31 18:30N 29°44' W 095°12'0 0.0
2017-Dec-31 18:00N 29°44' W 095°12'0 0.0
2017-Dec-31 17:30N 29°44' W 095°12'0 0.0
2017-Dec-31 17:00N 29°44' W 095°12'0 0.0
2017-Dec-31 16:18N 29°44' W 095°12'0 0.0
2017-Dec-31 15:48N 29°44' W 095°12'0 0.0
2017-Dec-31 15:24N 29°44' W 095°12'0 0.0
2017-Dec-31 15:00N 29°44' W 095°12'0 0.0
2017-Dec-31 14:27N 29°44' W 095°12'0 0.0
2017-Dec-31 13:57N 29°44' W 095°12'0 0.0
2017-Dec-31 13:30N 29°44' W 095°12'0 0.0
2017-Dec-31 13:00N 29°44' W 095°12'0 0.0
2017-Dec-31 12:24N 29°44' W 095°12'0 0.0
2017-Dec-31 11:57N 29°44' W 095°12'0 0.0
2017-Dec-31 11:24N 29°44' W 095°12'0 0.0
2017-Dec-31 10:57N 29°44' W 095°12'0 0.0
2017-Dec-31 10:24N 29°44' W 095°12'0 0.0
2017-Dec-31 09:57N 29°44' W 095°12'0 0.0
2017-Dec-31 09:21N 29°44' W 095°12'0 0.0
2017-Dec-31 09:00N 29°44' W 095°12'0 0.0
2017-Dec-31 08:27N 29°44' W 095°12'0 0.0
2017-Dec-31 07:57N 29°44' W 095°12'0 0.0
2017-Dec-31 07:27N 29°44' W 095°12'0 0.0
2017-Dec-31 06:57N 29°44' W 095°12'0 0.0
2017-Dec-31 06:09N 29°44' W 095°12'0 0.0
2017-Dec-31 05:57N 29°44' W 095°12'0 0.0
2017-Dec-31 05:27N 29°44' W 095°12'0 0.0
2017-Dec-31 04:57N 29°44' W 095°12'0 0.0
2017-Dec-31 04:30N 29°44' W 095°12'0 0.0
2017-Dec-31 03:57N 29°44' W 095°12'0 0.0
2017-Dec-31 03:24N 29°44' W 095°12'0 0.0
2017-Dec-31 02:45N 29°44' W 095°12'0 0.0
2017-Dec-31 02:27N 29°44' W 095°12'0 0.0
2017-Dec-31 02:00N 29°44' W 095°12'0 0.0
2017-Dec-31 01:27N 29°44' W 095°12'0 0.0
2017-Dec-31 00:42N 29°44' W 095°12'0 0.0
2017-Dec-31 00:24N 29°44' W 095°12'0 0.0
2017-Dec-31 00:00N 29°44' W 095°12'0 0.0
2017-Dec-30 23:30N 29°44' W 095°12'0 0.0
2017-Dec-30 22:57N 29°44' W 095°12'0 0.0
2017-Dec-30 22:27N 29°44' W 095°12'0 0.0
2017-Dec-30 21:54N 29°44' W 095°12'0 0.0
2017-Dec-30 21:24N 29°44' W 095°12'0 0.0
2017-Dec-30 21:00N 29°44' W 095°12'0 0.0
2017-Dec-30 20:27N 29°44' W 095°12'0 0.0
2017-Dec-30 20:00N 29°44' W 095°12'0 0.0
2017-Dec-30 19:21N 29°44' W 095°12'0 0.0
2017-Dec-30 18:46N 29°44' W 095°12'0 0.0
2017-Dec-30 18:13N 29°44' W 095°12'  

Dump ship's entire track history